Weather Data

Pearl Creek Farm: 8878 N Farm Road 75, Walnut Grove MO 65770

<== Previous Day (Monday 11 Apr 2016) | Next Day (Wednesday 13 Apr 2016) ==>

Summary Precipitation Data For Tuesday 12 April 2016

ElementValueUnits
Precipitation0.14"
Notes(none)
SourcePearl Creek Farm

Summary Temperature Data For Tuesday 12 April 2016

ElementValueUnits
High Temperature63 oF
Low Temperature37 oF
Average Temperature51 oF
High Humidity65 %
Low Humidity23 %
Average Humidity42 %
SourceSpringfield-Branson National Airport (SGF)

Detail Temperature Data For Tuesday 12 April 2016

Date / TimeTemp (F)RH (%)Dew Pt (F)Report Date / TimeSource
2016-04-12 00:52:00 47 46 27.0 2017-12-29 17:00:26.17417 Springfield-Branson National Airport (SGF)
2016-04-12 01:52:00 43 63 31.0 2017-12-29 17:00:26.17417 Springfield-Branson National Airport (SGF)
2016-04-12 02:52:00 41 60 28.0 2017-12-29 17:00:26.17417 Springfield-Branson National Airport (SGF)
2016-04-12 03:52:00 40 60 27.0 2017-12-29 17:00:26.17417 Springfield-Branson National Airport (SGF)
2016-04-12 04:52:00 39 65 28.0 2017-12-29 17:00:26.17417 Springfield-Branson National Airport (SGF)
2016-04-12 05:52:00 37 65 26.0 2017-12-29 17:00:26.17417 Springfield-Branson National Airport (SGF)
2016-04-12 06:52:00 41 57 27.0 2017-12-29 17:00:26.17417 Springfield-Branson National Airport (SGF)
2016-04-12 07:52:00 46 40 23.0 2017-12-29 17:00:26.17417 Springfield-Branson National Airport (SGF)
2016-04-12 08:52:00 49 36 23.0 2017-12-29 17:00:26.17417 Springfield-Branson National Airport (SGF)
2016-04-12 09:52:00 52 31 22.0 2017-12-29 17:00:26.17417 Springfield-Branson National Airport (SGF)
2016-04-12 10:52:00 56 30 25.0 2017-12-29 17:00:26.17417 Springfield-Branson National Airport (SGF)
2016-04-12 11:52:00 57 28 24.0 2017-12-29 17:00:26.17417 Springfield-Branson National Airport (SGF)
2016-04-12 12:52:00 58 29 26.0 2017-12-29 17:00:26.17417 Springfield-Branson National Airport (SGF)
2016-04-12 13:52:00 60 28 27.0 2017-12-29 17:00:26.17417 Springfield-Branson National Airport (SGF)
2016-04-12 14:52:00 62 26 27.0 2017-12-29 17:00:26.17417 Springfield-Branson National Airport (SGF)
2016-04-12 15:52:00 62 26 27.0 2017-12-29 17:00:26.17417 Springfield-Branson National Airport (SGF)
2016-04-12 16:52:00 63 23 24.0 2017-12-29 17:00:26.17417 Springfield-Branson National Airport (SGF)
2016-04-12 17:52:00 61 29 28.0 2017-12-29 17:00:26.17417 Springfield-Branson National Airport (SGF)
2016-04-12 18:52:00 57 29 25.0 2017-12-29 17:00:26.17417 Springfield-Branson National Airport (SGF)
2016-04-12 19:52:00 52 43 30.0 2017-12-29 17:00:26.17417 Springfield-Branson National Airport (SGF)
2016-04-12 20:52:00 49 52 32.0 2017-12-29 17:00:26.17417 Springfield-Branson National Airport (SGF)
2016-04-12 21:52:00 50 44 29.0 2017-12-29 17:00:26.17417 Springfield-Branson National Airport (SGF)
2016-04-12 22:52:00 48 50 30.0 2017-12-29 17:00:26.17417 Springfield-Branson National Airport (SGF)
2016-04-12 23:52:00 47 52 30.0 2017-12-29 17:00:26.17417 Springfield-Branson National Airport (SGF)

A total of 24 rows are displayed.